UAL1089 KEGE-KCAE
Flight info
| Callsign | UAL1089 |
|---|---|
| Flight time | N/A |
| Altitude | 37000 |
| Route | BEVVR1 APRES COORZ DVV GLD J80 HLC SLN BUM J112 FAM BNA GQO IRQ |
| Aircraft | A319/M-SDE3FGHIRWY/LB1 |
Departure
| Time | N/A |
|---|---|
| Airport | Eagle County Regional Airport (KEGE) |
Arrival
| Time | 2026-04-30 18:38 |
|---|---|
| Airport | Columbia Metropolitan Airport (KCAE) |
| Time | Latitude | Longitude | Altitude | Speed | Heading |
|---|---|---|---|---|---|
| 2026-04-30 17:39 | 37.33058 | -89.40846 | 37145 ft | 564 kts | 123° |
| 2026-04-30 17:42 | 37.14741 | -88.97549 | 37146 ft | 566 kts | 123° |
| 2026-04-30 17:43 | 37.05496 | -88.75906 | 37140 ft | 565 kts | 123° |
| 2026-04-30 17:44 | 36.94308 | -88.49938 | 37131 ft | 567 kts | 123° |
| 2026-04-30 17:47 | 36.77452 | -88.11156 | 37118 ft | 566 kts | 124° |
| 2026-04-30 17:48 | 36.64220 | -87.81042 | 37105 ft | 567 kts | 123° |
| 2026-04-30 17:50 | 36.49044 | -87.46834 | 37120 ft | 566 kts | 123° |
| 2026-04-30 17:52 | 36.37606 | -87.21284 | 37105 ft | 567 kts | 124° |
| 2026-04-30 17:54 | 36.20310 | -86.83013 | 37103 ft | 568 kts | 124° |
| 2026-04-30 17:55 | 36.12094 | -86.66504 | 37103 ft | 559 kts | 135° |
| 2026-04-30 17:56 | 36.01728 | -86.52515 | 37102 ft | 552 kts | 142° |
| 2026-04-30 17:58 | 35.85919 | -86.31703 | 37084 ft | 555 kts | 142° |
| 2026-04-30 18:00 | 35.64856 | -86.04041 | 37068 ft | 554 kts | 141° |
| 2026-04-30 18:01 | 35.51636 | -85.86801 | 37060 ft | 554 kts | 141° |
| 2026-04-30 18:02 | 35.35800 | -85.66273 | 37039 ft | 554 kts | 140° |
| 2026-04-30 18:04 | 35.20009 | -85.45906 | 37036 ft | 550 kts | 141° |
| 2026-04-30 18:06 | 34.99070 | -85.18840 | 37019 ft | 553 kts | 136° |
| 2026-04-30 18:07 | 34.90921 | -85.02859 | 37009 ft | 562 kts | 119° |
| 2026-04-30 18:08 | 34.85863 | -84.89994 | 36993 ft | 563 kts | 118° |
| 2026-04-30 18:10 | 34.72062 | -84.55917 | 36978 ft | 562 kts | 118° |
| 2026-04-30 18:11 | 34.59908 | -84.26252 | 36968 ft | 561 kts | 119° |
| 2026-04-30 18:13 | 34.51218 | -84.05218 | 36958 ft | 560 kts | 118° |
| 2026-04-30 18:14 | 34.42478 | -83.84183 | 36953 ft | 559 kts | 119° |
| 2026-04-30 18:15 | 34.31990 | -83.59109 | 36949 ft | 556 kts | 119° |
| 2026-04-30 18:16 | 34.24994 | -83.42495 | 36938 ft | 557 kts | 118° |
| 2026-04-30 18:17 | 34.23241 | -83.38339 | 36758 ft | 555 kts | 119° |
| 2026-04-30 18:17 | 34.21492 | -83.34197 | 35890 ft | 559 kts | 119° |
| 2026-04-30 18:17 | 34.17910 | -83.25745 | 33635 ft | 573 kts | 120° |
| 2026-04-30 18:18 | 34.16101 | -83.21484 | 32720 ft | 575 kts | 120° |
| 2026-04-30 18:18 | 34.14279 | -83.17190 | 31897 ft | 576 kts | 120° |
| 2026-04-30 18:18 | 34.12466 | -83.12920 | 31107 ft | 575 kts | 120° |
| 2026-04-30 18:18 | 34.10650 | -83.08652 | 30304 ft | 574 kts | 120° |
| 2026-04-30 18:19 | 34.08827 | -83.04366 | 29461 ft | 574 kts | 121° |
| 2026-04-30 18:19 | 34.07011 | -83.00109 | 28678 ft | 573 kts | 121° |
| 2026-04-30 18:19 | 34.05217 | -82.95925 | 28117 ft | 565 kts | 121° |
| 2026-04-30 18:19 | 34.03411 | -82.91705 | 27612 ft | 557 kts | 121° |
| 2026-04-30 18:20 | 34.01667 | -82.87627 | 27141 ft | 549 kts | 121° |
| 2026-04-30 18:20 | 33.99937 | -82.83593 | 26670 ft | 540 kts | 121° |
| 2026-04-30 18:20 | 33.98229 | -82.79626 | 26208 ft | 532 kts | 121° |
| 2026-04-30 18:20 | 33.96545 | -82.75711 | 25712 ft | 525 kts | 121° |
| 2026-04-30 18:21 | 33.94878 | -82.71842 | 25196 ft | 519 kts | 121° |
| 2026-04-30 18:21 | 33.93232 | -82.68024 | 24697 ft | 512 kts | 120° |
| 2026-04-30 18:21 | 33.91591 | -82.64213 | 24176 ft | 506 kts | 121° |
| 2026-04-30 18:21 | 33.89979 | -82.60480 | 23671 ft | 499 kts | 121° |
| 2026-04-30 18:22 | 33.88406 | -82.56842 | 23168 ft | 493 kts | 120° |
| 2026-04-30 18:22 | 33.85272 | -82.49612 | 22067 ft | 483 kts | 120° |
| 2026-04-30 18:22 | 33.83722 | -82.46030 | 21485 ft | 480 kts | 120° |
| 2026-04-30 18:23 | 33.82204 | -82.42534 | 20934 ft | 476 kts | 120° |
| 2026-04-30 18:23 | 33.80680 | -82.39033 | 20373 ft | 472 kts | 120° |
| 2026-04-30 18:23 | 33.79160 | -82.35541 | 19817 ft | 469 kts | 120° |
| 2026-04-30 18:23 | 33.77667 | -82.32099 | 19273 ft | 465 kts | 120° |
| 2026-04-30 18:24 | 33.74691 | -82.25275 | 18203 ft | 458 kts | 120° |
| 2026-04-30 18:24 | 33.73230 | -82.21930 | 17672 ft | 454 kts | 120° |
| 2026-04-30 18:24 | 33.71778 | -82.18580 | 17184 ft | 450 kts | 117° |
| 2026-04-30 18:25 | 33.70838 | -82.15041 | 16646 ft | 448 kts | 96° |
| 2026-04-30 18:25 | 33.71291 | -82.07778 | 15899 ft | 430 kts | 79° |
| 2026-04-30 18:25 | 33.71688 | -82.04276 | 15553 ft | 423 kts | 80° |
| 2026-04-30 18:26 | 33.72407 | -81.97379 | 14817 ft | 411 kts | 81° |
| 2026-04-30 18:26 | 33.72730 | -81.94019 | 14444 ft | 405 kts | 82° |
| 2026-04-30 18:26 | 33.73038 | -81.90685 | 14093 ft | 399 kts | 82° |
| 2026-04-30 18:27 | 33.73621 | -81.84147 | 13396 ft | 388 kts | 83° |
| 2026-04-30 18:27 | 33.73901 | -81.80970 | 13042 ft | 383 kts | 83° |
| 2026-04-30 18:28 | 33.74442 | -81.74747 | 12327 ft | 367 kts | 82° |
| 2026-04-30 18:28 | 33.74704 | -81.71754 | 11938 ft | 355 kts | 82° |
| 2026-04-30 18:28 | 33.75205 | -81.66010 | 11076 ft | 339 kts | 82° |
| 2026-04-30 18:29 | 33.75447 | -81.63235 | 10695 ft | 330 kts | 82° |
| 2026-04-30 18:29 | 33.76133 | -81.55364 | 9397 ft | 300 kts | 81° |
| 2026-04-30 18:30 | 33.76481 | -81.51342 | 8624 ft | 285 kts | 81° |
| 2026-04-30 18:30 | 33.76944 | -81.45968 | 7637 ft | 267 kts | 81° |
| 2026-04-30 18:31 | 33.77134 | -81.43781 | 7266 ft | 259 kts | 81° |
| 2026-04-30 18:31 | 33.77491 | -81.39617 | 6529 ft | 244 kts | 82° |
| 2026-04-30 18:32 | 33.77817 | -81.35722 | 6022 ft | 220 kts | 82° |
| 2026-04-30 18:32 | 33.77964 | -81.33929 | 5692 ft | 213 kts | 82° |
| 2026-04-30 18:32 | 33.78298 | -81.30500 | 4913 ft | 202 kts | 71° |
| 2026-04-30 18:33 | 33.78910 | -81.29057 | 4586 ft | 189 kts | 51° |
| 2026-04-30 18:33 | 33.80589 | -81.26897 | 3877 ft | 167 kts | 41° |
| 2026-04-30 18:33 | 33.81407 | -81.25964 | 3530 ft | 159 kts | 41° |
| 2026-04-30 18:34 | 33.82185 | -81.25066 | 3194 ft | 152 kts | 42° |
| 2026-04-30 18:34 | 33.83616 | -81.23373 | 2651 ft | 135 kts | 43° |
| 2026-04-30 18:34 | 33.84275 | -81.22588 | 2471 ft | 133 kts | 42° |
| 2026-04-30 18:35 | 33.84931 | -81.21805 | 2309 ft | 133 kts | 42° |
| 2026-04-30 18:35 | 33.85593 | -81.21016 | 2140 ft | 133 kts | 42° |
| 2026-04-30 18:35 | 33.86248 | -81.20235 | 1976 ft | 132 kts | 41° |
| 2026-04-30 18:36 | 33.87558 | -81.18677 | 1637 ft | 132 kts | 42° |
| 2026-04-30 18:36 | 33.88206 | -81.17908 | 1463 ft | 131 kts | 42° |
| 2026-04-30 18:36 | 33.89508 | -81.16362 | 1117 ft | 131 kts | 42° |
| 2026-04-30 18:37 | 33.90155 | -81.15594 | 944 ft | 130 kts | 43° |
| 2026-04-30 18:37 | 33.90797 | -81.14833 | 780 ft | 130 kts | 43° |
| 2026-04-30 18:37 | 33.91439 | -81.14072 | 611 ft | 130 kts | 43° |
| 2026-04-30 18:37 | 33.92087 | -81.13303 | 441 ft | 129 kts | 43° |
| 2026-04-30 18:38 | 33.92710 | -81.12543 | 286 ft | 129 kts | 43° |
| 2026-04-30 18:38 | 33.93354 | -81.11797 | 197 ft | 119 kts | 41° |
| 2026-04-30 18:38 | 33.93818 | -81.11250 | 217 ft | 67 kts | 44° |
| 2026-04-30 18:38 | 33.93977 | -81.11108 | 217 ft | 15 kts | 2° |
| 2026-04-30 18:39 | 33.94043 | -81.11157 | 217 ft | 8 kts | 289° |
| 2026-04-30 18:39 | 33.94052 | -81.11199 | 218 ft | 1 kts | 283° |
| 2026-04-30 18:39 | 33.94055 | -81.11214 | 218 ft | 3 kts | 283° |
| 2026-04-30 18:39 | 33.94061 | -81.11243 | 219 ft | 4 kts | 284° |
| 2026-04-30 18:40 | 33.94069 | -81.11282 | 219 ft | 5 kts | 286° |
| 2026-04-30 18:40 | 33.94081 | -81.11327 | 220 ft | 6 kts | 286° |